sensor_id;sensor_type;location;lat;lon;timestamp;temperature;humidity
3715;DHT22;1873;49.988;8.674;2022-10-16T00:01:23;15.80;99.90
3715;DHT22;1873;49.988;8.674;2022-10-16T00:03:52;15.80;99.90
3715;DHT22;1873;49.988;8.674;2022-10-16T00:06:21;15.70;99.90
3715;DHT22;1873;49.988;8.674;2022-10-16T00:08:51;15.70;99.90
3715;DHT22;1873;49.988;8.674;2022-10-16T00:11:20;15.70;99.90
3715;DHT22;1873;49.988;8.674;2022-10-16T00:13:50;15.70;99.90
3715;DHT22;1873;49.988;8.674;2022-10-16T00:16:19;15.70;99.90
3715;DHT22;1873;49.988;8.674;2022-10-16T00:18:50;15.80;99.90
3715;DHT22;1873;49.988;8.674;2022-10-16T00:21:21;15.80;99.90
3715;DHT22;1873;49.988;8.674;2022-10-16T00:23:51;15.80;99.90
3715;DHT22;1873;49.988;8.674;2022-10-16T00:26:20;15.80;99.90
3715;DHT22;1873;49.988;8.674;2022-10-16T00:28:49;15.80;99.90
3715;DHT22;1873;49.988;8.674;2022-10-16T00:31:19;15.80;99.90
3715;DHT22;1873;49.988;8.674;2022-10-16T00:33:51;15.80;99.90
3715;DHT22;1873;49.988;8.674;2022-10-16T00:36:20;15.80;99.90
3715;DHT22;1873;49.988;8.674;2022-10-16T00:38:50;15.80;99.90
3715;DHT22;1873;49.988;8.674;2022-10-16T00:41:22;15.80;99.90
3715;DHT22;1873;49.988;8.674;2022-10-16T00:43:51;15.70;99.90
3715;DHT22;1873;49.988;8.674;2022-10-16T00:46:22;15.80;99.90
3715;DHT22;1873;49.988;8.674;2022-10-16T00:48:57;15.80;99.90
3715;DHT22;1873;49.988;8.674;2022-10-16T00:51:30;15.80;99.90
3715;DHT22;1873;49.988;8.674;2022-10-16T00:54:01;15.80;99.90
3715;DHT22;1873;49.988;8.674;2022-10-16T00:56:30;15.80;99.90
3715;DHT22;1873;49.988;8.674;2022-10-16T00:58:59;15.80;99.90
3715;DHT22;1873;49.988;8.674;2022-10-16T01:01:29;15.80;99.90
3715;DHT22;1873;49.988;8.674;2022-10-16T01:03:59;15.80;99.90
3715;DHT22;1873;49.988;8.674;2022-10-16T01:06:32;15.80;99.90
3715;DHT22;1873;49.988;8.674;2022-10-16T01:09:17;15.70;99.90
3715;DHT22;1873;49.988;8.674;2022-10-16T01:11:57;15.80;99.90
3715;DHT22;1873;49.988;8.674;2022-10-16T01:14:34;15.70;99.90
3715;DHT22;1873;49.988;8.674;2022-10-16T01:17:10;15.70;99.90
3715;DHT22;1873;49.988;8.674;2022-10-16T01:20:04;15.70;99.90
3715;DHT22;1873;49.988;8.674;2022-10-16T01:22:43;15.70;99.90
3715;DHT22;1873;49.988;8.674;2022-10-16T01:25:16;15.70;99.90
3715;DHT22;1873;49.988;8.674;2022-10-16T01:27:48;15.70;99.90
3715;DHT22;1873;49.988;8.674;2022-10-16T01:30:21;15.70;99.90
3715;DHT22;1873;49.988;8.674;2022-10-16T01:32:55;15.70;99.90
3715;DHT22;1873;49.988;8.674;2022-10-16T01:35:27;15.70;99.90
3715;DHT22;1873;49.988;8.674;2022-10-16T01:38:01;15.70;99.90
3715;DHT22;1873;49.988;8.674;2022-10-16T01:40:33;15.60;99.90
3715;DHT22;1873;49.988;8.674;2022-10-16T01:43:06;15.60;99.90
3715;DHT22;1873;49.988;8.674;2022-10-16T01:45:36;15.60;99.90
3715;DHT22;1873;49.988;8.674;2022-10-16T01:48:05;15.60;99.90
3715;DHT22;1873;49.988;8.674;2022-10-16T01:50:39;15.60;99.90
3715;DHT22;1873;49.988;8.674;2022-10-16T01:53:11;15.60;99.90
3715;DHT22;1873;49.988;8.674;2022-10-16T01:55:43;15.50;99.90
3715;DHT22;1873;49.988;8.674;2022-10-16T01:58:14;15.50;99.90
3715;DHT22;1873;49.988;8.674;2022-10-16T02:00:44;15.50;99.90
3715;DHT22;1873;49.988;8.674;2022-10-16T02:03:17;15.50;99.90
3715;DHT22;1873;49.988;8.674;2022-10-16T02:05:47;15.50;99.90
3715;DHT22;1873;49.988;8.674;2022-10-16T02:08:16;15.50;99.90
3715;DHT22;1873;49.988;8.674;2022-10-16T02:10:45;15.50;99.90
3715;DHT22;1873;49.988;8.674;2022-10-16T02:13:17;15.50;99.90
3715;DHT22;1873;49.988;8.674;2022-10-16T02:15:52;15.50;99.90
3715;DHT22;1873;49.988;8.674;2022-10-16T02:18:25;15.50;99.90
3715;DHT22;1873;49.988;8.674;2022-10-16T02:20:58;15.50;99.90
3715;DHT22;1873;49.988;8.674;2022-10-16T02:23:34;15.60;99.90
3715;DHT22;1873;49.988;8.674;2022-10-16T02:26:05;15.60;99.90
3715;DHT22;1873;49.988;8.674;2022-10-16T02:28:41;15.60;99.90
3715;DHT22;1873;49.988;8.674;2022-10-16T02:31:11;15.60;99.90
3715;DHT22;1873;49.988;8.674;2022-10-16T02:33:42;15.60;99.90
3715;DHT22;1873;49.988;8.674;2022-10-16T02:36:12;15.60;99.90
3715;DHT22;1873;49.988;8.674;2022-10-16T02:38:40;15.60;99.90
3715;DHT22;1873;49.988;8.674;2022-10-16T02:41:09;15.60;99.90
3715;DHT22;1873;49.988;8.674;2022-10-16T02:43:39;15.60;99.90
3715;DHT22;1873;49.988;8.674;2022-10-16T02:46:07;15.60;99.90
3715;DHT22;1873;49.988;8.674;2022-10-16T02:48:36;15.60;99.90
3715;DHT22;1873;49.988;8.674;2022-10-16T02:51:06;15.60;99.90
3715;DHT22;1873;49.988;8.674;2022-10-16T02:53:34;15.60;99.90
3715;DHT22;1873;49.988;8.674;2022-10-16T02:56:08;15.60;99.90
3715;DHT22;1873;49.988;8.674;2022-10-16T02:58:36;15.60;99.90
3715;DHT22;1873;49.988;8.674;2022-10-16T03:01:06;15.70;99.90
3715;DHT22;1873;49.988;8.674;2022-10-16T03:03:35;15.60;99.90
3715;DHT22;1873;49.988;8.674;2022-10-16T03:06:04;15.60;99.90
3715;DHT22;1873;49.988;8.674;2022-10-16T03:08:32;15.60;99.90
3715;DHT22;1873;49.988;8.674;2022-10-16T03:11:00;15.70;99.90
3715;DHT22;1873;49.988;8.674;2022-10-16T03:13:29;15.70;99.90
3715;DHT22;1873;49.988;8.674;2022-10-16T03:15:58;15.70;99.90
3715;DHT22;1873;49.988;8.674;2022-10-16T03:18:28;15.70;99.90
3715;DHT22;1873;49.988;8.674;2022-10-16T03:20:56;15.70;99.90
3715;DHT22;1873;49.988;8.674;2022-10-16T03:23:24;15.70;99.90
3715;DHT22;1873;49.988;8.674;2022-10-16T03:25:53;15.70;99.90
3715;DHT22;1873;49.988;8.674;2022-10-16T03:28:21;15.70;99.90
3715;DHT22;1873;49.988;8.674;2022-10-16T03:30:50;15.70;99.90
3715;DHT22;1873;49.988;8.674;2022-10-16T03:33:18;15.70;99.90
3715;DHT22;1873;49.988;8.674;2022-10-16T03:35:53;15.70;99.90
3715;DHT22;1873;49.988;8.674;2022-10-16T03:38:22;15.70;99.90
3715;DHT22;1873;49.988;8.674;2022-10-16T03:40:50;15.70;99.90
3715;DHT22;1873;49.988;8.674;2022-10-16T03:43:18;15.70;99.90
3715;DHT22;1873;49.988;8.674;2022-10-16T03:45:47;15.70;99.90
3715;DHT22;1873;49.988;8.674;2022-10-16T03:48:15;15.70;99.90
3715;DHT22;1873;49.988;8.674;2022-10-16T03:50:43;15.70;99.90
3715;DHT22;1873;49.988;8.674;2022-10-16T03:53:14;15.70;99.90
3715;DHT22;1873;49.988;8.674;2022-10-16T03:55:43;15.70;99.90
3715;DHT22;1873;49.988;8.674;2022-10-16T03:58:12;15.70;99.90
3715;DHT22;1873;49.988;8.674;2022-10-16T04:00:41;15.70;99.90
3715;DHT22;1873;49.988;8.674;2022-10-16T04:03:10;15.60;99.90
3715;DHT22;1873;49.988;8.674;2022-10-16T04:05:39;15.70;99.90
3715;DHT22;1873;49.988;8.674;2022-10-16T04:08:08;15.70;99.90
3715;DHT22;1873;49.988;8.674;2022-10-16T04:10:37;15.70;99.90
3715;DHT22;1873;49.988;8.674;2022-10-16T04:13:05;15.70;99.90
3715;DHT22;1873;49.988;8.674;2022-10-16T04:15:34;15.70;99.90
3715;DHT22;1873;49.988;8.674;2022-10-16T04:18:02;15.70;99.90
3715;DHT22;1873;49.988;8.674;2022-10-16T04:20:31;15.60;99.90
3715;DHT22;1873;49.988;8.674;2022-10-16T04:22:59;15.60;99.90
3715;DHT22;1873;49.988;8.674;2022-10-16T04:25:28;15.60;99.90
3715;DHT22;1873;49.988;8.674;2022-10-16T04:27:57;15.60;99.90
3715;DHT22;1873;49.988;8.674;2022-10-16T04:30:25;15.60;99.90
3715;DHT22;1873;49.988;8.674;2022-10-16T04:32:53;15.70;99.90
3715;DHT22;1873;49.988;8.674;2022-10-16T04:35:22;15.70;99.90
3715;DHT22;1873;49.988;8.674;2022-10-16T04:37:50;15.70;99.90
3715;DHT22;1873;49.988;8.674;2022-10-16T04:40:18;15.70;99.90
3715;DHT22;1873;49.988;8.674;2022-10-16T04:42:47;15.70;99.90
3715;DHT22;1873;49.988;8.674;2022-10-16T04:45:16;15.70;99.90
3715;DHT22;1873;49.988;8.674;2022-10-16T04:47:44;15.70;99.90
3715;DHT22;1873;49.988;8.674;2022-10-16T04:50:13;15.70;99.90
3715;DHT22;1873;49.988;8.674;2022-10-16T04:52:41;15.60;99.90
3715;DHT22;1873;49.988;8.674;2022-10-16T04:55:09;15.70;99.90
3715;DHT22;1873;49.988;8.674;2022-10-16T04:57:37;15.70;99.90
3715;DHT22;1873;49.988;8.674;2022-10-16T05:00:06;15.70;99.90
3715;DHT22;1873;49.988;8.674;2022-10-16T05:02:36;15.70;99.90
3715;DHT22;1873;49.988;8.674;2022-10-16T05:05:06;15.80;99.90
3715;DHT22;1873;49.988;8.674;2022-10-16T05:07:34;15.70;99.90
3715;DHT22;1873;49.988;8.674;2022-10-16T05:10:04;15.80;99.90
3715;DHT22;1873;49.988;8.674;2022-10-16T05:12:32;15.80;99.90
3715;DHT22;1873;49.988;8.674;2022-10-16T05:15:00;15.80;99.90
3715;DHT22;1873;49.988;8.674;2022-10-16T05:17:29;15.80;99.90
3715;DHT22;1873;49.988;8.674;2022-10-16T05:19:58;15.80;99.90
3715;DHT22;1873;49.988;8.674;2022-10-16T05:22:27;15.80;99.90
3715;DHT22;1873;49.988;8.674;2022-10-16T05:24:55;15.80;99.90
3715;DHT22;1873;49.988;8.674;2022-10-16T05:27:23;15.70;99.90
3715;DHT22;1873;49.988;8.674;2022-10-16T05:29:52;15.70;99.90
3715;DHT22;1873;49.988;8.674;2022-10-16T05:32:20;15.70;99.90
3715;DHT22;1873;49.988;8.674;2022-10-16T05:34:52;15.70;99.90
3715;DHT22;1873;49.988;8.674;2022-10-16T05:37:21;15.70;99.90
3715;DHT22;1873;49.988;8.674;2022-10-16T05:39:50;15.70;99.90
3715;DHT22;1873;49.988;8.674;2022-10-16T05:42:19;15.70;99.90
3715;DHT22;1873;49.988;8.674;2022-10-16T05:44:48;15.70;99.90
3715;DHT22;1873;49.988;8.674;2022-10-16T05:47:16;15.70;99.90
3715;DHT22;1873;49.988;8.674;2022-10-16T05:49:47;15.80;99.90
3715;DHT22;1873;49.988;8.674;2022-10-16T05:52:15;15.80;99.90
3715;DHT22;1873;49.988;8.674;2022-10-16T05:54:45;15.70;99.90
3715;DHT22;1873;49.988;8.674;2022-10-16T05:57:13;15.70;99.90
3715;DHT22;1873;49.988;8.674;2022-10-16T05:59:42;15.70;99.90
3715;DHT22;1873;49.988;8.674;2022-10-16T06:02:12;15.70;99.90
3715;DHT22;1873;49.988;8.674;2022-10-16T06:04:40;15.60;99.90
3715;DHT22;1873;49.988;8.674;2022-10-16T06:07:09;15.60;99.90
3715;DHT22;1873;49.988;8.674;2022-10-16T06:09:37;15.60;99.90
3715;DHT22;1873;49.988;8.674;2022-10-16T06:12:07;15.60;99.90
3715;DHT22;1873;49.988;8.674;2022-10-16T06:14:35;15.60;99.90
3715;DHT22;1873;49.988;8.674;2022-10-16T06:17:03;15.60;99.90
3715;DHT22;1873;49.988;8.674;2022-10-16T06:19:31;15.60;99.90
3715;DHT22;1873;49.988;8.674;2022-10-16T06:21:59;15.60;99.90
3715;DHT22;1873;49.988;8.674;2022-10-16T06:24:29;15.60;99.90
3715;DHT22;1873;49.988;8.674;2022-10-16T06:26:57;15.60;99.90
3715;DHT22;1873;49.988;8.674;2022-10-16T06:29:27;15.60;99.90
3715;DHT22;1873;49.988;8.674;2022-10-16T06:31:55;15.70;99.90
3715;DHT22;1873;49.988;8.674;2022-10-16T06:34:23;15.70;99.90
3715;DHT22;1873;49.988;8.674;2022-10-16T06:36:51;15.70;99.90
3715;DHT22;1873;49.988;8.674;2022-10-16T06:39:19;15.70;99.90
3715;DHT22;1873;49.988;8.674;2022-10-16T06:41:48;15.70;99.90
3715;DHT22;1873;49.988;8.674;2022-10-16T06:44:16;15.70;99.90
3715;DHT22;1873;49.988;8.674;2022-10-16T06:46:46;15.70;99.90
3715;DHT22;1873;49.988;8.674;2022-10-16T06:49:14;15.80;99.90
3715;DHT22;1873;49.988;8.674;2022-10-16T06:51:48;15.80;99.90
3715;DHT22;1873;49.988;8.674;2022-10-16T06:54:16;15.80;99.90
3715;DHT22;1873;49.988;8.674;2022-10-16T06:56:45;15.80;99.90
3715;DHT22;1873;49.988;8.674;2022-10-16T06:59:13;15.90;99.90
3715;DHT22;1873;49.988;8.674;2022-10-16T07:01:41;15.90;99.90
3715;DHT22;1873;49.988;8.674;2022-10-16T07:04:11;15.80;99.90
3715;DHT22;1873;49.988;8.674;2022-10-16T07:06:39;15.80;99.90
3715;DHT22;1873;49.988;8.674;2022-10-16T07:09:12;15.80;99.90
3715;DHT22;1873;49.988;8.674;2022-10-16T07:11:40;15.80;99.90
3715;DHT22;1873;49.988;8.674;2022-10-16T07:14:15;15.80;99.90
3715;DHT22;1873;49.988;8.674;2022-10-16T07:16:44;15.80;99.90
3715;DHT22;1873;49.988;8.674;2022-10-16T07:19:14;15.80;99.90
3715;DHT22;1873;49.988;8.674;2022-10-16T07:21:44;15.80;99.90
3715;DHT22;1873;49.988;8.674;2022-10-16T07:24:14;15.90;99.90
3715;DHT22;1873;49.988;8.674;2022-10-16T07:26:44;15.90;99.90
3715;DHT22;1873;49.988;8.674;2022-10-16T07:29:13;15.90;99.90
3715;DHT22;1873;49.988;8.674;2022-10-16T07:31:42;15.90;99.90
3715;DHT22;1873;49.988;8.674;2022-10-16T07:34:12;15.90;99.90
3715;DHT22;1873;49.988;8.674;2022-10-16T07:36:42;15.90;99.90
3715;DHT22;1873;49.988;8.674;2022-10-16T07:39:11;15.90;99.90
3715;DHT22;1873;49.988;8.674;2022-10-16T07:41:39;15.90;99.90
3715;DHT22;1873;49.988;8.674;2022-10-16T07:44:07;15.90;99.90
3715;DHT22;1873;49.988;8.674;2022-10-16T07:46:35;15.90;99.90
3715;DHT22;1873;49.988;8.674;2022-10-16T07:49:04;15.90;99.90
3715;DHT22;1873;49.988;8.674;2022-10-16T07:51:32;15.90;99.90
3715;DHT22;1873;49.988;8.674;2022-10-16T07:54:02;15.90;99.90
3715;DHT22;1873;49.988;8.674;2022-10-16T07:56:31;16.00;99.90
3715;DHT22;1873;49.988;8.674;2022-10-16T07:58:59;16.00;99.90
3715;DHT22;1873;49.988;8.674;2022-10-16T08:01:28;16.00;99.90
3715;DHT22;1873;49.988;8.674;2022-10-16T08:03:56;15.90;99.90
3715;DHT22;1873;49.988;8.674;2022-10-16T08:06:25;15.90;99.90
3715;DHT22;1873;49.988;8.674;2022-10-16T08:08:54;15.90;99.90
3715;DHT22;1873;49.988;8.674;2022-10-16T08:11:25;15.90;99.90
3715;DHT22;1873;49.988;8.674;2022-10-16T08:13:53;15.90;99.90
3715;DHT22;1873;49.988;8.674;2022-10-16T08:16:21;15.90;99.90
3715;DHT22;1873;49.988;8.674;2022-10-16T08:18:49;15.90;99.90
3715;DHT22;1873;49.988;8.674;2022-10-16T08:21:21;15.90;99.90
3715;DHT22;1873;49.988;8.674;2022-10-16T08:23:50;15.90;99.90
3715;DHT22;1873;49.988;8.674;2022-10-16T08:26:25;15.90;99.90
3715;DHT22;1873;49.988;8.674;2022-10-16T08:28:54;16.00;99.90
3715;DHT22;1873;49.988;8.674;2022-10-16T08:31:23;16.00;99.90
3715;DHT22;1873;49.988;8.674;2022-10-16T08:33:53;16.00;99.90
3715;DHT22;1873;49.988;8.674;2022-10-16T08:36:21;16.10;99.90
3715;DHT22;1873;49.988;8.674;2022-10-16T08:38:49;16.10;99.90
3715;DHT22;1873;49.988;8.674;2022-10-16T08:47:18;16.20;99.90
3715;DHT22;1873;49.988;8.674;2022-10-16T08:49:56;16.20;99.90
3715;DHT22;1873;49.988;8.674;2022-10-16T08:52:29;16.20;99.90
3715;DHT22;1873;49.988;8.674;2022-10-16T08:54:58;16.20;99.90
3715;DHT22;1873;49.988;8.674;2022-10-16T08:57:27;16.20;99.90
3715;DHT22;1873;49.988;8.674;2022-10-16T08:59:59;16.20;99.90
3715;DHT22;1873;49.988;8.674;2022-10-16T09:02:33;16.20;99.90
3715;DHT22;1873;49.988;8.674;2022-10-16T09:05:25;16.20;99.90
3715;DHT22;1873;49.988;8.674;2022-10-16T09:08:05;16.20;99.90
3715;DHT22;1873;49.988;8.674;2022-10-16T09:10:45;16.20;99.90
3715;DHT22;1873;49.988;8.674;2022-10-16T09:13:21;16.20;99.90
3715;DHT22;1873;49.988;8.674;2022-10-16T09:15:58;16.20;99.90
3715;DHT22;1873;49.988;8.674;2022-10-16T09:18:36;16.20;99.90
3715;DHT22;1873;49.988;8.674;2022-10-16T09:21:11;16.20;99.90
3715;DHT22;1873;49.988;8.674;2022-10-16T09:23:42;16.20;99.90
3715;DHT22;1873;49.988;8.674;2022-10-16T09:26:13;16.30;99.90
3715;DHT22;1873;49.988;8.674;2022-10-16T09:28:42;16.30;99.90
3715;DHT22;1873;49.988;8.674;2022-10-16T09:31:19;16.30;99.90
3715;DHT22;1873;49.988;8.674;2022-10-16T09:33:52;16.40;99.90
3715;DHT22;1873;49.988;8.674;2022-10-16T09:36:23;16.40;99.90
3715;DHT22;1873;49.988;8.674;2022-10-16T09:39:02;16.40;99.90
3715;DHT22;1873;49.988;8.674;2022-10-16T09:41:34;16.40;99.90
3715;DHT22;1873;49.988;8.674;2022-10-16T09:44:06;16.40;99.90
3715;DHT22;1873;49.988;8.674;2022-10-16T09:46:44;16.40;99.90
3715;DHT22;1873;49.988;8.674;2022-10-16T09:49:24;16.40;99.90
3715;DHT22;1873;49.988;8.674;2022-10-16T09:52:03;16.50;99.90
3715;DHT22;1873;49.988;8.674;2022-10-16T09:54:32;16.60;99.90
3715;DHT22;1873;49.988;8.674;2022-10-16T09:57:07;16.70;99.90
3715;DHT22;1873;49.988;8.674;2022-10-16T09:59:46;16.80;99.90
3715;DHT22;1873;49.988;8.674;2022-10-16T10:02:16;16.90;99.90
3715;DHT22;1873;49.988;8.674;2022-10-16T10:04:52;16.90;99.90
3715;DHT22;1873;49.988;8.674;2022-10-16T10:07:25;16.90;99.90
3715;DHT22;1873;49.988;8.674;2022-10-16T10:09:56;16.90;99.90
3715;DHT22;1873;49.988;8.674;2022-10-16T10:12:28;16.90;99.90
3715;DHT22;1873;49.988;8.674;2022-10-16T10:15:04;17.00;99.90
3715;DHT22;1873;49.988;8.674;2022-10-16T10:17:44;17.00;99.90
3715;DHT22;1873;49.988;8.674;2022-10-16T10:20:23;17.00;99.90
3715;DHT22;1873;49.988;8.674;2022-10-16T10:22:52;17.00;99.90
3715;DHT22;1873;49.988;8.674;2022-10-16T10:25:35;17.00;99.90
3715;DHT22;1873;49.988;8.674;2022-10-16T10:28:17;17.10;99.90
3715;DHT22;1873;49.988;8.674;2022-10-16T10:30:52;17.10;99.90
3715;DHT22;1873;49.988;8.674;2022-10-16T10:33:34;17.20;99.90
3715;DHT22;1873;49.988;8.674;2022-10-16T10:36:12;17.30;99.90
3715;DHT22;1873;49.988;8.674;2022-10-16T10:38:49;17.30;99.90
3715;DHT22;1873;49.988;8.674;2022-10-16T10:41:32;17.40;99.90
3715;DHT22;1873;49.988;8.674;2022-10-16T10:44:13;17.50;99.90
3715;DHT22;1873;49.988;8.674;2022-10-16T10:46:50;17.50;99.90
3715;DHT22;1873;49.988;8.674;2022-10-16T10:49:34;17.50;99.90
3715;DHT22;1873;49.988;8.674;2022-10-16T10:52:33;17.50;99.90
3715;DHT22;1873;49.988;8.674;2022-10-16T10:55:10;17.40;99.90
3715;DHT22;1873;49.988;8.674;2022-10-16T10:57:54;17.50;99.90
3715;DHT22;1873;49.988;8.674;2022-10-16T11:00:40;17.50;99.90
3715;DHT22;1873;49.988;8.674;2022-10-16T11:03:17;17.50;99.90
3715;DHT22;1873;49.988;8.674;2022-10-16T11:05:49;17.50;99.90
3715;DHT22;1873;49.988;8.674;2022-10-16T11:08:25;17.50;99.90
3715;DHT22;1873;49.988;8.674;2022-10-16T11:10:59;17.60;99.90
3715;DHT22;1873;49.988;8.674;2022-10-16T11:13:32;17.60;99.90
3715;DHT22;1873;49.988;8.674;2022-10-16T11:16:07;17.60;99.90
3715;DHT22;1873;49.988;8.674;2022-10-16T11:18:49;17.70;99.90
3715;DHT22;1873;49.988;8.674;2022-10-16T11:21:38;17.80;99.90
3715;DHT22;1873;49.988;8.674;2022-10-16T11:24:15;17.90;99.90
3715;DHT22;1873;49.988;8.674;2022-10-16T11:26:50;18.00;99.90
3715;DHT22;1873;49.988;8.674;2022-10-16T11:30:04;18.30;99.90
3715;DHT22;1873;49.988;8.674;2022-10-16T11:32:43;18.60;99.90
3715;DHT22;1873;49.988;8.674;2022-10-16T11:35:19;18.70;99.90
3715;DHT22;1873;49.988;8.674;2022-10-16T11:37:50;18.80;99.90
3715;DHT22;1873;49.988;8.674;2022-10-16T11:40:29;18.80;99.90
3715;DHT22;1873;49.988;8.674;2022-10-16T11:43:06;18.80;99.90
3715;DHT22;1873;49.988;8.674;2022-10-16T11:45:41;18.80;99.90
3715;DHT22;1873;49.988;8.674;2022-10-16T11:48:17;18.80;99.90
3715;DHT22;1873;49.988;8.674;2022-10-16T11:50:52;18.70;99.90
3715;DHT22;1873;49.988;8.674;2022-10-16T11:53:29;18.70;99.90
3715;DHT22;1873;49.988;8.674;2022-10-16T11:56:04;18.70;99.90
3715;DHT22;1873;49.988;8.674;2022-10-16T11:58:39;18.70;99.90
3715;DHT22;1873;49.988;8.674;2022-10-16T12:01:40;18.60;99.90
3715;DHT22;1873;49.988;8.674;2022-10-16T12:04:19;18.70;99.90
3715;DHT22;1873;49.988;8.674;2022-10-16T12:06:52;18.70;99.90
3715;DHT22;1873;49.988;8.674;2022-10-16T12:09:26;18.80;99.90
3715;DHT22;1873;49.988;8.674;2022-10-16T12:12:24;18.90;99.90
3715;DHT22;1873;49.988;8.674;2022-10-16T12:15:15;18.90;99.90
3715;DHT22;1873;49.988;8.674;2022-10-16T12:18:03;19.00;99.90
3715;DHT22;1873;49.988;8.674;2022-10-16T12:20:33;19.10;99.90
3715;DHT22;1873;49.988;8.674;2022-10-16T12:23:38;19.00;99.90
3715;DHT22;1873;49.988;8.674;2022-10-16T12:26:39;19.10;99.90
3715;DHT22;1873;49.988;8.674;2022-10-16T12:29:30;19.20;99.90
3715;DHT22;1873;49.988;8.674;2022-10-16T12:32:05;19.20;99.90
3715;DHT22;1873;49.988;8.674;2022-10-16T12:35:06;19.30;99.90
3715;DHT22;1873;49.988;8.674;2022-10-16T12:41:37;19.40;99.90
3715;DHT22;1873;49.988;8.674;2022-10-16T12:44:33;19.40;99.90
3715;DHT22;1873;49.988;8.674;2022-10-16T12:51:12;19.40;99.90
3715;DHT22;1873;49.988;8.674;2022-10-16T12:54:01;19.30;99.90
3715;DHT22;1873;49.988;8.674;2022-10-16T12:56:47;19.20;99.90
3715;DHT22;1873;49.988;8.674;2022-10-16T12:59:25;19.10;99.90
3715;DHT22;1873;49.988;8.674;2022-10-16T13:02:23;19.10;99.90
3715;DHT22;1873;49.988;8.674;2022-10-16T13:05:11;19.00;99.90
3715;DHT22;1873;49.988;8.674;2022-10-16T13:07:56;19.00;99.90
3715;DHT22;1873;49.988;8.674;2022-10-16T13:10:32;19.00;99.90
3715;DHT22;1873;49.988;8.674;2022-10-16T13:13:24;19.00;99.90
3715;DHT22;1873;49.988;8.674;2022-10-16T13:16:07;18.90;99.90
3715;DHT22;1873;49.988;8.674;2022-10-16T13:18:46;18.90;99.90
3715;DHT22;1873;49.988;8.674;2022-10-16T13:21:32;18.80;99.90
3715;DHT22;1873;49.988;8.674;2022-10-16T13:24:10;18.90;99.90
3715;DHT22;1873;49.988;8.674;2022-10-16T13:26:44;18.90;99.90
3715;DHT22;1873;49.988;8.674;2022-10-16T13:29:14;18.80;99.90
3715;DHT22;1873;49.988;8.674;2022-10-16T13:31:43;18.80;99.90
3715;DHT22;1873;49.988;8.674;2022-10-16T13:34:41;18.80;99.90
3715;DHT22;1873;49.988;8.674;2022-10-16T13:37:21;18.80;99.90
3715;DHT22;1873;49.988;8.674;2022-10-16T13:39:50;18.80;99.90
3715;DHT22;1873;49.988;8.674;2022-10-16T13:42:23;18.80;99.90
3715;DHT22;1873;49.988;8.674;2022-10-16T13:44:55;18.80;99.90
3715;DHT22;1873;49.988;8.674;2022-10-16T13:47:25;18.80;99.90
3715;DHT22;1873;49.988;8.674;2022-10-16T13:50:02;18.80;99.90
3715;DHT22;1873;49.988;8.674;2022-10-16T13:52:32;18.70;99.90
3715;DHT22;1873;49.988;8.674;2022-10-16T13:55:04;18.80;99.90
3715;DHT22;1873;49.988;8.674;2022-10-16T13:57:32;18.80;99.90
3715;DHT22;1873;49.988;8.674;2022-10-16T14:00:04;18.80;99.90
3715;DHT22;1873;49.988;8.674;2022-10-16T14:02:45;18.80;99.90
3715;DHT22;1873;49.988;8.674;2022-10-16T14:05:21;18.80;99.90
3715;DHT22;1873;49.988;8.674;2022-10-16T14:07:51;18.70;99.90
3715;DHT22;1873;49.988;8.674;2022-10-16T14:10:23;18.70;99.90
3715;DHT22;1873;49.988;8.674;2022-10-16T14:12:58;18.70;99.90
3715;DHT22;1873;49.988;8.674;2022-10-16T14:15:29;18.70;99.90
3715;DHT22;1873;49.988;8.674;2022-10-16T14:17:58;18.80;99.90
3715;DHT22;1873;49.988;8.674;2022-10-16T14:20:30;18.80;99.90
3715;DHT22;1873;49.988;8.674;2022-10-16T14:23:36;18.80;99.90
3715;DHT22;1873;49.988;8.674;2022-10-16T14:26:20;18.90;99.90
3715;DHT22;1873;49.988;8.674;2022-10-16T14:29:01;18.90;99.90
3715;DHT22;1873;49.988;8.674;2022-10-16T14:31:33;18.90;99.90
3715;DHT22;1873;49.988;8.674;2022-10-16T14:34:03;18.90;99.90
3715;DHT22;1873;49.988;8.674;2022-10-16T14:36:33;18.90;99.90
3715;DHT22;1873;49.988;8.674;2022-10-16T14:39:17;18.90;99.90
3715;DHT22;1873;49.988;8.674;2022-10-16T14:41:48;18.90;99.90
3715;DHT22;1873;49.988;8.674;2022-10-16T14:44:17;18.90;99.90
3715;DHT22;1873;49.988;8.674;2022-10-16T14:46:52;18.90;99.90
3715;DHT22;1873;49.988;8.674;2022-10-16T14:49:26;18.90;99.90
3715;DHT22;1873;49.988;8.674;2022-10-16T14:52:25;18.90;99.90
3715;DHT22;1873;49.988;8.674;2022-10-16T14:54:54;18.90;99.90
3715;DHT22;1873;49.988;8.674;2022-10-16T14:57:38;18.90;99.90
3715;DHT22;1873;49.988;8.674;2022-10-16T15:00:15;18.90;99.90
3715;DHT22;1873;49.988;8.674;2022-10-16T15:02:43;19.00;99.90
3715;DHT22;1873;49.988;8.674;2022-10-16T15:05:18;18.90;99.90
3715;DHT22;1873;49.988;8.674;2022-10-16T15:07:48;18.90;99.90
3715;DHT22;1873;49.988;8.674;2022-10-16T15:10:17;18.80;99.90
3715;DHT22;1873;49.988;8.674;2022-10-16T15:12:49;18.90;99.90
3715;DHT22;1873;49.988;8.674;2022-10-16T15:15:33;18.80;99.90
3715;DHT22;1873;49.988;8.674;2022-10-16T15:25:57;18.70;99.90
3715;DHT22;1873;49.988;8.674;2022-10-16T15:55:20;18.50;99.90
3715;DHT22;1873;49.988;8.674;2022-10-16T15:58:42;18.50;99.90
3715;DHT22;1873;49.988;8.674;2022-10-16T16:02:11;18.50;99.90
3715;DHT22;1873;49.988;8.674;2022-10-16T16:04:47;18.40;99.90
3715;DHT22;1873;49.988;8.674;2022-10-16T16:07:19;18.40;99.90
3715;DHT22;1873;49.988;8.674;2022-10-16T16:09:53;18.40;99.90
3715;DHT22;1873;49.988;8.674;2022-10-16T16:13:08;18.40;99.90
3715;DHT22;1873;49.988;8.674;2022-10-16T16:15:38;18.30;99.90
3715;DHT22;1873;49.988;8.674;2022-10-16T16:18:16;18.30;99.90
3715;DHT22;1873;49.988;8.674;2022-10-16T16:20:56;18.30;99.90
3715;DHT22;1873;49.988;8.674;2022-10-16T16:23:46;18.30;99.90
3715;DHT22;1873;49.988;8.674;2022-10-16T16:26:35;18.30;99.90
3715;DHT22;1873;49.988;8.674;2022-10-16T16:29:09;18.40;99.90
3715;DHT22;1873;49.988;8.674;2022-10-16T16:31:42;18.40;99.90
3715;DHT22;1873;49.988;8.674;2022-10-16T16:34:33;18.40;99.90
3715;DHT22;1873;49.988;8.674;2022-10-16T16:37:01;18.40;99.90
3715;DHT22;1873;49.988;8.674;2022-10-16T16:39:30;18.40;99.90
3715;DHT22;1873;49.988;8.674;2022-10-16T16:41:58;18.40;99.90
3715;DHT22;1873;49.988;8.674;2022-10-16T16:44:40;18.40;99.90
3715;DHT22;1873;49.988;8.674;2022-10-16T16:47:10;18.30;99.90
3715;DHT22;1873;49.988;8.674;2022-10-16T16:50:08;18.30;99.90
3715;DHT22;1873;49.988;8.674;2022-10-16T16:52:39;18.20;99.90
3715;DHT22;1873;49.988;8.674;2022-10-16T16:55:08;18.10;99.90
3715;DHT22;1873;49.988;8.674;2022-10-16T16:57:38;18.10;99.90
3715;DHT22;1873;49.988;8.674;2022-10-16T17:00:29;18.10;99.90
3715;DHT22;1873;49.988;8.674;2022-10-16T17:03:03;18.10;99.90
3715;DHT22;1873;49.988;8.674;2022-10-16T17:05:35;18.10;99.90
3715;DHT22;1873;49.988;8.674;2022-10-16T17:08:06;18.20;99.90
3715;DHT22;1873;49.988;8.674;2022-10-16T17:14:39;18.20;99.90
3715;DHT22;1873;49.988;8.674;2022-10-16T17:31:55;18.20;99.90
3715;DHT22;1873;49.988;8.674;2022-10-16T17:37:59;18.10;99.90
3715;DHT22;1873;49.988;8.674;2022-10-16T17:40:29;18.10;99.90
3715;DHT22;1873;49.988;8.674;2022-10-16T17:42:59;18.20;99.90
3715;DHT22;1873;49.988;8.674;2022-10-16T17:45:38;18.10;99.90
3715;DHT22;1873;49.988;8.674;2022-10-16T17:48:24;18.10;99.90
3715;DHT22;1873;49.988;8.674;2022-10-16T17:50:55;18.10;99.90
3715;DHT22;1873;49.988;8.674;2022-10-16T17:53:24;18.10;99.90
3715;DHT22;1873;49.988;8.674;2022-10-16T17:55:54;18.00;99.90